Sunbury, NC (27979)

7:28 AM EST on January 27, 2015 (GMT -0500)
GPKandSon | Change Station
CLOSE
Current Station
Personal Weather Station
Location: Corapeake, NC
Elevation: 45 ft
Nearby Weather Stations

Elev 45 ft 36.52 °N, 76.58 °W | Updated 5 minutes ago

Snow
Snow
30.4 °F
Feels Like 30 °F
N
2.0
Wind Variable Wind from NE
Gusts 5.0 mph

Today
High -- | Low -- °F
--% Chance of Precip.
Yesterday
High -- | Low -- °F
Precip. -- in
7:11 AM 5:26 PM
First Quarter, 53% visible
Pressure 29.76 in
Visibility 2.0 miles
Clouds Overcast 800 ft
Windchill 30 °F
Dew Point 29 °F
Humidity 93%
Rainfall 0.00 in
Snow Depth Not available.
UV 0 out of 12
Pollen .80 out of 12
Air Quality Not available.
Flu Activity Not available.
METAR KSFQ 271215Z AUTO 33006KT 2SM -SN OVC008 M01/M02 A2976 RMK AO2 T10111025

More Conditions Fewer Conditions

Pressure 29.76 in
Visibility 2.0 miles
Clouds Overcast 800 ft
Windchill 30 °F
Dew Point 29 °F
Humidity 93%
Rainfall 0.00 in
Snow Depth Not available.
UV 0 out of 12
Pollen .80 out of 12
Air Quality Not available.
Flu Activity Not available.
METAR KSFQ 271215Z AUTO 33006KT 2SM -SN OVC008 M01/M02 A2976 RMK AO2 T10111025

More Conditions Fewer Conditions

10-Day Weather Forecast

Almanac

Astronomy

Jan. 27, 2015 Rise Set
Actual Time
Civil Twilight
Nautical Twilight
Astronomical Twilight
Moon
Length of Visible Light
Length of Day
Tomorrow will be .
, % of the Moon is Illuminated

Today's Extremes

State Highs State Lows

Community

WunderPhotos

Upload Photos

1,790,579 photos uploaded!

WunderBlogs® & News

Nearby

Air Quality

  Air Quality AQ Index Pollutant
Not available.

Snow Depth

Station Depth Elevation

Earthquake Activity

City Distance Mag. Time & Date
Minimum magnitude displayed is 2.5.

Coastal Water Temperatures

Place Temperature

Nearby Weather Stations